sensor_id;sensor_type;location;lat;lon;timestamp;temperature;humidity
59881;DHT22;45751;51.380;10.326;2022-12-07T00:01:45;1.40;99.90
59881;DHT22;45751;51.380;10.326;2022-12-07T00:04:15;1.40;99.90
59881;DHT22;45751;51.380;10.326;2022-12-07T00:06:45;1.30;99.90
59881;DHT22;45751;51.380;10.326;2022-12-07T00:09:15;1.40;99.90
59881;DHT22;45751;51.380;10.326;2022-12-07T00:11:42;1.40;99.90
59881;DHT22;45751;51.380;10.326;2022-12-07T00:14:13;1.40;99.90
59881;DHT22;45751;51.380;10.326;2022-12-07T00:16:41;1.40;99.90
59881;DHT22;45751;51.380;10.326;2022-12-07T00:19:11;1.40;99.90
59881;DHT22;45751;51.380;10.326;2022-12-07T00:21:39;1.40;99.90
59881;DHT22;45751;51.380;10.326;2022-12-07T00:24:07;1.40;99.90
59881;DHT22;45751;51.380;10.326;2022-12-07T00:26:37;1.40;99.90
59881;DHT22;45751;51.380;10.326;2022-12-07T00:29:25;1.40;99.90
59881;DHT22;45751;51.380;10.326;2022-12-07T00:31:52;1.40;99.90
59881;DHT22;45751;51.380;10.326;2022-12-07T00:34:21;1.40;99.90
59881;DHT22;45751;51.380;10.326;2022-12-07T00:36:50;1.40;99.90
59881;DHT22;45751;51.380;10.326;2022-12-07T00:39:18;1.40;99.90
59881;DHT22;45751;51.380;10.326;2022-12-07T00:41:46;1.40;99.90
59881;DHT22;45751;51.380;10.326;2022-12-07T00:44:16;1.40;99.90
59881;DHT22;45751;51.380;10.326;2022-12-07T00:46:43;1.40;99.90
59881;DHT22;45751;51.380;10.326;2022-12-07T00:49:15;1.40;99.90
59881;DHT22;45751;51.380;10.326;2022-12-07T00:51:42;1.40;99.90
59881;DHT22;45751;51.380;10.326;2022-12-07T00:54:10;1.40;99.90
59881;DHT22;45751;51.380;10.326;2022-12-07T00:56:37;1.40;99.90
59881;DHT22;45751;51.380;10.326;2022-12-07T00:59:06;1.40;99.90
59881;DHT22;45751;51.380;10.326;2022-12-07T01:01:35;1.40;99.90
59881;DHT22;45751;51.380;10.326;2022-12-07T01:04:03;1.40;99.90
59881;DHT22;45751;51.380;10.326;2022-12-07T01:06:34;1.40;99.90
59881;DHT22;45751;51.380;10.326;2022-12-07T01:09:02;1.40;99.90
59881;DHT22;45751;51.380;10.326;2022-12-07T01:11:30;1.40;99.90
59881;DHT22;45751;51.380;10.326;2022-12-07T01:13:58;1.40;99.90
59881;DHT22;45751;51.380;10.326;2022-12-07T01:16:29;1.40;99.90
59881;DHT22;45751;51.380;10.326;2022-12-07T01:19:00;1.50;99.90
59881;DHT22;45751;51.380;10.326;2022-12-07T01:21:32;1.50;99.90
59881;DHT22;45751;51.380;10.326;2022-12-07T01:24:09;1.50;99.90
59881;DHT22;45751;51.380;10.326;2022-12-07T01:26:36;1.50;99.90
59881;DHT22;45751;51.380;10.326;2022-12-07T01:29:05;1.50;99.90
59881;DHT22;45751;51.380;10.326;2022-12-07T01:31:31;1.50;99.90
59881;DHT22;45751;51.380;10.326;2022-12-07T01:34:00;1.50;99.90
59881;DHT22;45751;51.380;10.326;2022-12-07T01:36:35;1.50;99.90
59881;DHT22;45751;51.380;10.326;2022-12-07T01:39:05;1.40;99.90
59881;DHT22;45751;51.380;10.326;2022-12-07T01:41:37;1.40;99.90
59881;DHT22;45751;51.380;10.326;2022-12-07T01:44:30;1.40;99.90
59881;DHT22;45751;51.380;10.326;2022-12-07T01:47:03;1.30;99.90
59881;DHT22;45751;51.380;10.326;2022-12-07T01:49:43;1.40;99.90
59881;DHT22;45751;51.380;10.326;2022-12-07T01:52:22;1.40;99.90
59881;DHT22;45751;51.380;10.326;2022-12-07T01:54:54;1.30;99.90
59881;DHT22;45751;51.380;10.326;2022-12-07T01:57:22;1.40;99.90
59881;DHT22;45751;51.380;10.326;2022-12-07T01:59:52;1.40;99.90
59881;DHT22;45751;51.380;10.326;2022-12-07T02:05:22;1.40;99.90
59881;DHT22;45751;51.380;10.326;2022-12-07T02:07:53;1.40;99.90
59881;DHT22;45751;51.380;10.326;2022-12-07T02:10:24;1.40;99.90
59881;DHT22;45751;51.380;10.326;2022-12-07T02:13:03;1.40;99.90
59881;DHT22;45751;51.380;10.326;2022-12-07T02:18:16;1.40;99.90
59881;DHT22;45751;51.380;10.326;2022-12-07T02:21:11;1.40;99.90
59881;DHT22;45751;51.380;10.326;2022-12-07T02:29:34;1.40;99.90
59881;DHT22;45751;51.380;10.326;2022-12-07T02:32:11;1.30;99.90
59881;DHT22;45751;51.380;10.326;2022-12-07T02:34:50;1.30;99.90
59881;DHT22;45751;51.380;10.326;2022-12-07T02:37:42;1.30;99.90
59881;DHT22;45751;51.380;10.326;2022-12-07T02:40:16;1.30;99.90
59881;DHT22;45751;51.380;10.326;2022-12-07T02:42:50;1.30;99.90
59881;DHT22;45751;51.380;10.326;2022-12-07T02:45:22;1.30;99.90
59881;DHT22;45751;51.380;10.326;2022-12-07T02:47:56;1.30;99.90
59881;DHT22;45751;51.380;10.326;2022-12-07T02:50:25;1.40;99.90
59881;DHT22;45751;51.380;10.326;2022-12-07T02:52:53;1.40;99.90
59881;DHT22;45751;51.380;10.326;2022-12-07T02:55:25;1.40;99.90
59881;DHT22;45751;51.380;10.326;2022-12-07T02:58:05;1.40;99.90
59881;DHT22;45751;51.380;10.326;2022-12-07T03:00:45;1.40;99.90
59881;DHT22;45751;51.380;10.326;2022-12-07T03:03:15;1.40;99.90
59881;DHT22;45751;51.380;10.326;2022-12-07T03:08:33;1.50;99.90
59881;DHT22;45751;51.380;10.326;2022-12-07T03:11:07;1.50;99.90
59881;DHT22;45751;51.380;10.326;2022-12-07T03:13:49;1.50;99.90
59881;DHT22;45751;51.380;10.326;2022-12-07T03:16:26;1.50;99.90
59881;DHT22;45751;51.380;10.326;2022-12-07T03:18:56;1.50;99.90
59881;DHT22;45751;51.380;10.326;2022-12-07T03:21:38;1.60;99.90
59881;DHT22;45751;51.380;10.326;2022-12-07T03:24:10;1.60;99.90
59881;DHT22;45751;51.380;10.326;2022-12-07T03:26:47;1.60;99.90
59881;DHT22;45751;51.380;10.326;2022-12-07T03:29:28;1.60;99.90
59881;DHT22;45751;51.380;10.326;2022-12-07T03:32:22;1.60;99.90
59881;DHT22;45751;51.380;10.326;2022-12-07T03:35:11;1.60;99.90
59881;DHT22;45751;51.380;10.326;2022-12-07T03:37:51;1.70;99.90
59881;DHT22;45751;51.380;10.326;2022-12-07T03:40:36;1.70;99.90
59881;DHT22;45751;51.380;10.326;2022-12-07T03:43:05;1.70;99.90
59881;DHT22;45751;51.380;10.326;2022-12-07T03:46:07;1.70;99.90
59881;DHT22;45751;51.380;10.326;2022-12-07T03:49:08;1.80;99.90
59881;DHT22;45751;51.380;10.326;2022-12-07T03:58:23;1.80;99.90
59881;DHT22;45751;51.380;10.326;2022-12-07T04:00:53;1.80;99.90
59881;DHT22;45751;51.380;10.326;2022-12-07T04:03:20;1.80;99.90
59881;DHT22;45751;51.380;10.326;2022-12-07T04:05:47;1.80;99.90
59881;DHT22;45751;51.380;10.326;2022-12-07T04:08:17;1.80;99.90
59881;DHT22;45751;51.380;10.326;2022-12-07T04:10:45;1.90;99.90
59881;DHT22;45751;51.380;10.326;2022-12-07T04:13:12;1.90;99.90
59881;DHT22;45751;51.380;10.326;2022-12-07T04:15:43;1.90;99.90
59881;DHT22;45751;51.380;10.326;2022-12-07T04:18:09;1.90;99.90
59881;DHT22;45751;51.380;10.326;2022-12-07T04:20:37;1.90;99.90
59881;DHT22;45751;51.380;10.326;2022-12-07T04:23:06;1.90;99.90
59881;DHT22;45751;51.380;10.326;2022-12-07T04:25:33;1.90;99.90
59881;DHT22;45751;51.380;10.326;2022-12-07T04:27:59;1.90;99.90
59881;DHT22;45751;51.380;10.326;2022-12-07T04:30:30;1.90;99.90
59881;DHT22;45751;51.380;10.326;2022-12-07T04:32:56;1.90;99.90
59881;DHT22;45751;51.380;10.326;2022-12-07T04:35:23;1.90;99.90
59881;DHT22;45751;51.380;10.326;2022-12-07T04:37:52;1.90;99.90
59881;DHT22;45751;51.380;10.326;2022-12-07T04:40:19;1.90;99.90
59881;DHT22;45751;51.380;10.326;2022-12-07T04:42:45;1.90;99.90
59881;DHT22;45751;51.380;10.326;2022-12-07T04:45:15;2.00;99.90
59881;DHT22;45751;51.380;10.326;2022-12-07T04:47:43;2.00;99.90
59881;DHT22;45751;51.380;10.326;2022-12-07T04:50:10;1.90;99.90
59881;DHT22;45751;51.380;10.326;2022-12-07T04:52:40;2.00;99.90
59881;DHT22;45751;51.380;10.326;2022-12-07T04:55:08;2.00;99.90
59881;DHT22;45751;51.380;10.326;2022-12-07T04:57:35;2.00;99.90
59881;DHT22;45751;51.380;10.326;2022-12-07T05:00:03;1.90;99.90
59881;DHT22;45751;51.380;10.326;2022-12-07T05:02:33;2.00;99.90
59881;DHT22;45751;51.380;10.326;2022-12-07T05:05:00;2.00;99.90
59881;DHT22;45751;51.380;10.326;2022-12-07T05:07:26;2.00;99.90
59881;DHT22;45751;51.380;10.326;2022-12-07T05:09:55;2.00;99.90
59881;DHT22;45751;51.380;10.326;2022-12-07T05:12:23;2.00;99.90
59881;DHT22;45751;51.380;10.326;2022-12-07T05:14:50;2.00;99.90
59881;DHT22;45751;51.380;10.326;2022-12-07T05:17:18;2.00;99.90
59881;DHT22;45751;51.380;10.326;2022-12-07T05:19:46;2.00;99.90
59881;DHT22;45751;51.380;10.326;2022-12-07T05:22:13;2.00;99.90
59881;DHT22;45751;51.380;10.326;2022-12-07T05:24:40;2.00;99.90
59881;DHT22;45751;51.380;10.326;2022-12-07T05:27:08;2.00;99.90
59881;DHT22;45751;51.380;10.326;2022-12-07T05:29:35;2.00;99.90
59881;DHT22;45751;51.380;10.326;2022-12-07T05:32:01;2.00;99.90
59881;DHT22;45751;51.380;10.326;2022-12-07T05:34:30;2.00;99.90
59881;DHT22;45751;51.380;10.326;2022-12-07T05:36:57;2.00;99.90
59881;DHT22;45751;51.380;10.326;2022-12-07T05:39:25;2.00;99.90
59881;DHT22;45751;51.380;10.326;2022-12-07T05:41:51;2.00;99.90
59881;DHT22;45751;51.380;10.326;2022-12-07T05:44:41;2.00;99.90
59881;DHT22;45751;51.380;10.326;2022-12-07T05:47:09;2.00;99.90
59881;DHT22;45751;51.380;10.326;2022-12-07T05:49:36;2.00;99.90
59881;DHT22;45751;51.380;10.326;2022-12-07T05:52:05;2.00;99.90
59881;DHT22;45751;51.380;10.326;2022-12-07T05:54:33;2.00;99.90
59881;DHT22;45751;51.380;10.326;2022-12-07T05:57:00;2.10;99.90
59881;DHT22;45751;51.380;10.326;2022-12-07T05:59:27;2.10;99.90
59881;DHT22;45751;51.380;10.326;2022-12-07T06:02:04;2.10;99.90
59881;DHT22;45751;51.380;10.326;2022-12-07T06:04:35;2.10;99.90
59881;DHT22;45751;51.380;10.326;2022-12-07T06:07:02;2.10;99.90
59881;DHT22;45751;51.380;10.326;2022-12-07T06:09:29;2.10;99.90
59881;DHT22;45751;51.380;10.326;2022-12-07T06:11:58;2.10;99.90
59881;DHT22;45751;51.380;10.326;2022-12-07T06:14:46;2.10;99.90
59881;DHT22;45751;51.380;10.326;2022-12-07T06:17:13;2.10;99.90
59881;DHT22;45751;51.380;10.326;2022-12-07T06:19:40;2.10;99.90
59881;DHT22;45751;51.380;10.326;2022-12-07T06:22:09;2.10;99.90
59881;DHT22;45751;51.380;10.326;2022-12-07T06:24:39;2.20;99.90
59881;DHT22;45751;51.380;10.326;2022-12-07T06:27:07;2.10;99.90
59881;DHT22;45751;51.380;10.326;2022-12-07T06:29:35;2.20;99.90
59881;DHT22;45751;51.380;10.326;2022-12-07T06:32:02;2.20;99.90
59881;DHT22;45751;51.380;10.326;2022-12-07T06:34:31;2.20;99.90
59881;DHT22;45751;51.380;10.326;2022-12-07T06:36:58;2.20;99.90
59881;DHT22;45751;51.380;10.326;2022-12-07T06:39:28;2.20;99.90
59881;DHT22;45751;51.380;10.326;2022-12-07T06:41:56;2.20;99.90
59881;DHT22;45751;51.380;10.326;2022-12-07T06:44:25;2.20;99.90
59881;DHT22;45751;51.380;10.326;2022-12-07T06:46:52;2.20;99.90
59881;DHT22;45751;51.380;10.326;2022-12-07T06:49:40;2.20;99.90
59881;DHT22;45751;51.380;10.326;2022-12-07T06:52:07;2.20;99.90
59881;DHT22;45751;51.380;10.326;2022-12-07T06:54:35;2.20;99.90
59881;DHT22;45751;51.380;10.326;2022-12-07T06:57:02;2.20;99.90
59881;DHT22;45751;51.380;10.326;2022-12-07T06:59:31;2.20;99.90
59881;DHT22;45751;51.380;10.326;2022-12-07T07:01:58;2.20;99.90
59881;DHT22;45751;51.380;10.326;2022-12-07T07:04:25;2.20;99.90
59881;DHT22;45751;51.380;10.326;2022-12-07T07:06:53;2.20;99.90
59881;DHT22;45751;51.380;10.326;2022-12-07T07:09:26;2.20;99.90
59881;DHT22;45751;51.380;10.326;2022-12-07T07:11:54;2.20;99.90
59881;DHT22;45751;51.380;10.326;2022-12-07T07:14:20;2.20;99.90
59881;DHT22;45751;51.380;10.326;2022-12-07T07:16:51;2.20;99.90
59881;DHT22;45751;51.380;10.326;2022-12-07T07:19:18;2.20;99.90
59881;DHT22;45751;51.380;10.326;2022-12-07T07:21:48;2.20;99.90
59881;DHT22;45751;51.380;10.326;2022-12-07T07:24:15;2.30;99.90
59881;DHT22;45751;51.380;10.326;2022-12-07T07:26:44;2.20;99.90
59881;DHT22;45751;51.380;10.326;2022-12-07T07:29:11;2.20;99.90
59881;DHT22;45751;51.380;10.326;2022-12-07T07:31:38;2.30;99.90
59881;DHT22;45751;51.380;10.326;2022-12-07T07:34:06;2.20;99.90
59881;DHT22;45751;51.380;10.326;2022-12-07T07:36:33;2.30;99.90
59881;DHT22;45751;51.380;10.326;2022-12-07T07:39:03;2.30;99.90
59881;DHT22;45751;51.380;10.326;2022-12-07T07:41:32;2.30;99.90
59881;DHT22;45751;51.380;10.326;2022-12-07T07:44:01;2.30;99.90
59881;DHT22;45751;51.380;10.326;2022-12-07T07:46:28;2.30;99.90
59881;DHT22;45751;51.380;10.326;2022-12-07T07:48:56;2.30;99.90
59881;DHT22;45751;51.380;10.326;2022-12-07T07:51:23;2.30;99.90
59881;DHT22;45751;51.380;10.326;2022-12-07T07:53:51;2.30;99.90
59881;DHT22;45751;51.380;10.326;2022-12-07T07:56:18;2.30;99.90
59881;DHT22;45751;51.380;10.326;2022-12-07T07:58:45;2.30;99.90
59881;DHT22;45751;51.380;10.326;2022-12-07T08:01:13;2.30;99.90
59881;DHT22;45751;51.380;10.326;2022-12-07T08:03:41;2.30;99.90
59881;DHT22;45751;51.380;10.326;2022-12-07T08:06:09;2.30;99.90
59881;DHT22;45751;51.380;10.326;2022-12-07T08:08:36;2.30;99.90
59881;DHT22;45751;51.380;10.326;2022-12-07T08:11:06;2.30;99.90
59881;DHT22;45751;51.380;10.326;2022-12-07T08:13:33;2.30;99.90
59881;DHT22;45751;51.380;10.326;2022-12-07T08:16:05;2.30;99.90
59881;DHT22;45751;51.380;10.326;2022-12-07T08:18:39;2.30;99.90
59881;DHT22;45751;51.380;10.326;2022-12-07T08:21:10;2.30;99.90
59881;DHT22;45751;51.380;10.326;2022-12-07T08:23:37;2.30;99.90
59881;DHT22;45751;51.380;10.326;2022-12-07T08:26:12;2.30;99.90
59881;DHT22;45751;51.380;10.326;2022-12-07T08:28:43;2.30;99.90
59881;DHT22;45751;51.380;10.326;2022-12-07T08:31:14;2.30;99.90
59881;DHT22;45751;51.380;10.326;2022-12-07T08:33:47;2.40;99.90
59881;DHT22;45751;51.380;10.326;2022-12-07T08:36:16;2.40;99.90
59881;DHT22;45751;51.380;10.326;2022-12-07T08:38:46;2.40;99.90
59881;DHT22;45751;51.380;10.326;2022-12-07T08:41:33;2.30;99.90
59881;DHT22;45751;51.380;10.326;2022-12-07T08:44:02;2.40;99.90
59881;DHT22;45751;51.380;10.326;2022-12-07T08:46:38;2.40;99.90
59881;DHT22;45751;51.380;10.326;2022-12-07T08:49:18;2.40;99.90
59881;DHT22;45751;51.380;10.326;2022-12-07T08:51:47;2.40;99.90
59881;DHT22;45751;51.380;10.326;2022-12-07T08:54:17;2.40;99.90
59881;DHT22;45751;51.380;10.326;2022-12-07T08:56:47;2.40;99.90
59881;DHT22;45751;51.380;10.326;2022-12-07T08:59:26;2.40;99.90
59881;DHT22;45751;51.380;10.326;2022-12-07T09:01:53;2.40;99.90
59881;DHT22;45751;51.380;10.326;2022-12-07T09:04:20;2.40;99.90
59881;DHT22;45751;51.380;10.326;2022-12-07T09:06:48;2.40;99.90
59881;DHT22;45751;51.380;10.326;2022-12-07T09:09:15;2.40;99.90
59881;DHT22;45751;51.380;10.326;2022-12-07T09:11:43;2.40;99.90
59881;DHT22;45751;51.380;10.326;2022-12-07T09:14:12;2.40;99.90
59881;DHT22;45751;51.380;10.326;2022-12-07T09:16:40;2.40;99.90
59881;DHT22;45751;51.380;10.326;2022-12-07T09:19:09;2.40;99.90
59881;DHT22;45751;51.380;10.326;2022-12-07T09:21:35;2.40;99.90
59881;DHT22;45751;51.380;10.326;2022-12-07T09:24:04;2.40;99.90
59881;DHT22;45751;51.380;10.326;2022-12-07T09:26:31;2.40;99.90
59881;DHT22;45751;51.380;10.326;2022-12-07T09:28:57;2.40;99.90
59881;DHT22;45751;51.380;10.326;2022-12-07T09:31:25;2.40;99.90
59881;DHT22;45751;51.380;10.326;2022-12-07T09:33:59;2.50;99.90
59881;DHT22;45751;51.380;10.326;2022-12-07T09:36:27;2.40;99.90
59881;DHT22;45751;51.380;10.326;2022-12-07T09:38:55;2.40;99.90
59881;DHT22;45751;51.380;10.326;2022-12-07T09:41:24;2.40;99.90
59881;DHT22;45751;51.380;10.326;2022-12-07T09:44:04;2.40;99.90
59881;DHT22;45751;51.380;10.326;2022-12-07T09:46:37;2.30;99.90
59881;DHT22;45751;51.380;10.326;2022-12-07T09:49:12;2.30;99.90
59881;DHT22;45751;51.380;10.326;2022-12-07T09:51:41;2.30;99.90
59881;DHT22;45751;51.380;10.326;2022-12-07T09:54:08;2.30;99.90
59881;DHT22;45751;51.380;10.326;2022-12-07T09:56:38;2.30;99.90
59881;DHT22;45751;51.380;10.326;2022-12-07T09:59:06;2.40;99.90
59881;DHT22;45751;51.380;10.326;2022-12-07T10:01:38;2.40;99.90
59881;DHT22;45751;51.380;10.326;2022-12-07T10:04:15;2.40;99.90
59881;DHT22;45751;51.380;10.326;2022-12-07T10:06:43;2.40;99.90
59881;DHT22;45751;51.380;10.326;2022-12-07T10:09:12;2.40;99.90
59881;DHT22;45751;51.380;10.326;2022-12-07T10:12:00;2.40;99.90
59881;DHT22;45751;51.380;10.326;2022-12-07T10:14:31;2.50;99.90
59881;DHT22;45751;51.380;10.326;2022-12-07T10:17:38;2.40;99.90
59881;DHT22;45751;51.380;10.326;2022-12-07T10:20:17;2.50;99.90
59881;DHT22;45751;51.380;10.326;2022-12-07T10:23:03;2.50;99.90
59881;DHT22;45751;51.380;10.326;2022-12-07T10:25:34;2.50;99.90
59881;DHT22;45751;51.380;10.326;2022-12-07T10:28:12;2.50;99.90
59881;DHT22;45751;51.380;10.326;2022-12-07T10:30:52;2.50;99.90
59881;DHT22;45751;51.380;10.326;2022-12-07T10:35:58;2.60;99.90
59881;DHT22;45751;51.380;10.326;2022-12-07T10:38:26;2.60;99.90
59881;DHT22;45751;51.380;10.326;2022-12-07T10:41:05;2.50;99.90
59881;DHT22;45751;51.380;10.326;2022-12-07T10:43:34;2.60;99.90
59881;DHT22;45751;51.380;10.326;2022-12-07T10:51:53;2.60;99.90
59881;DHT22;45751;51.380;10.326;2022-12-07T10:54:31;2.60;99.90
59881;DHT22;45751;51.380;10.326;2022-12-07T11:05:25;2.70;99.90
59881;DHT22;45751;51.380;10.326;2022-12-07T11:16:24;2.80;99.90
59881;DHT22;45751;51.380;10.326;2022-12-07T11:22:00;2.80;99.90
59881;DHT22;45751;51.380;10.326;2022-12-07T11:30:34;2.90;99.90
59881;DHT22;45751;51.380;10.326;2022-12-07T11:33:26;2.90;99.90
59881;DHT22;45751;51.380;10.326;2022-12-07T11:41:48;2.90;99.90
59881;DHT22;45751;51.380;10.326;2022-12-07T11:47:08;2.80;99.90
59881;DHT22;45751;51.380;10.326;2022-12-07T11:49:58;2.90;99.90
59881;DHT22;45751;51.380;10.326;2022-12-07T11:52:51;2.90;99.90
59881;DHT22;45751;51.380;10.326;2022-12-07T11:55:49;2.80;99.90
59881;DHT22;45751;51.380;10.326;2022-12-07T12:01:14;2.80;99.90
59881;DHT22;45751;51.380;10.326;2022-12-07T12:06:31;2.80;99.90
59881;DHT22;45751;51.380;10.326;2022-12-07T12:09:17;2.80;99.90
59881;DHT22;45751;51.380;10.326;2022-12-07T12:18:44;2.80;99.90
59881;DHT22;45751;51.380;10.326;2022-12-07T12:21:20;2.90;99.90
59881;DHT22;45751;51.380;10.326;2022-12-07T12:24:12;2.90;99.90
59881;DHT22;45751;51.380;10.326;2022-12-07T12:26:53;2.90;99.90
59881;DHT22;45751;51.380;10.326;2022-12-07T12:29:41;2.90;99.90
59881;DHT22;45751;51.380;10.326;2022-12-07T12:32:17;2.90;99.90
59881;DHT22;45751;51.380;10.326;2022-12-07T12:42:51;2.90;99.90
59881;DHT22;45751;51.380;10.326;2022-12-07T12:50:35;2.90;99.90
59881;DHT22;45751;51.380;10.326;2022-12-07T12:53:24;2.90;99.90
59881;DHT22;45751;51.380;10.326;2022-12-07T12:56:26;3.00;99.90
59881;DHT22;45751;51.380;10.326;2022-12-07T13:01:46;3.00;99.90
59881;DHT22;45751;51.380;10.326;2022-12-07T13:04:48;3.00;99.90
59881;DHT22;45751;51.380;10.326;2022-12-07T13:10:40;3.00;99.90
59881;DHT22;45751;51.380;10.326;2022-12-07T13:15:48;2.80;99.90
59881;DHT22;45751;51.380;10.326;2022-12-07T13:23:38;2.80;99.90
59881;DHT22;45751;51.380;10.326;2022-12-07T13:28:50;2.80;99.90
59881;DHT22;45751;51.380;10.326;2022-12-07T13:33:56;2.80;99.90
59881;DHT22;45751;51.380;10.326;2022-12-07T13:36:27;2.80;99.90
59881;DHT22;45751;51.380;10.326;2022-12-07T13:39:21;2.80;99.90
59881;DHT22;45751;51.380;10.326;2022-12-07T13:41:56;2.90;99.90
59881;DHT22;45751;51.380;10.326;2022-12-07T13:44:28;2.90;99.90
59881;DHT22;45751;51.380;10.326;2022-12-07T13:47:23;2.90;99.90
59881;DHT22;45751;51.380;10.326;2022-12-07T13:49:55;2.90;99.90
59881;DHT22;45751;51.380;10.326;2022-12-07T13:52:29;2.90;99.90
59881;DHT22;45751;51.380;10.326;2022-12-07T13:57:34;2.90;99.90
59881;DHT22;45751;51.380;10.326;2022-12-07T14:00:04;2.90;99.90
59881;DHT22;45751;51.380;10.326;2022-12-07T14:02:34;2.90;99.90
59881;DHT22;45751;51.380;10.326;2022-12-07T14:05:14;2.90;99.90
59881;DHT22;45751;51.380;10.326;2022-12-07T14:08:02;2.90;99.90
59881;DHT22;45751;51.380;10.326;2022-12-07T14:15:58;2.90;99.90
59881;DHT22;45751;51.380;10.326;2022-12-07T14:18:40;2.90;99.90
59881;DHT22;45751;51.380;10.326;2022-12-07T14:23:42;2.90;99.90
59881;DHT22;45751;51.380;10.326;2022-12-07T14:26:20;2.90;99.90
59881;DHT22;45751;51.380;10.326;2022-12-07T14:28:50;3.00;99.90
59881;DHT22;45751;51.380;10.326;2022-12-07T14:31:19;3.00;99.90
59881;DHT22;45751;51.380;10.326;2022-12-07T14:34:00;2.90;99.90
59881;DHT22;45751;51.380;10.326;2022-12-07T14:36:27;2.90;99.90
59881;DHT22;45751;51.380;10.326;2022-12-07T14:38:55;2.90;99.90
59881;DHT22;45751;51.380;10.326;2022-12-07T14:41:24;2.90;99.90
59881;DHT22;45751;51.380;10.326;2022-12-07T14:44:12;2.90;99.90
59881;DHT22;45751;51.380;10.326;2022-12-07T14:46:59;2.90;99.90
59881;DHT22;45751;51.380;10.326;2022-12-07T14:49:47;2.90;99.90
59881;DHT22;45751;51.380;10.326;2022-12-07T14:52:27;2.90;99.90
59881;DHT22;45751;51.380;10.326;2022-12-07T14:55:26;2.90;99.90
59881;DHT22;45751;51.380;10.326;2022-12-07T14:57:56;2.90;99.90
59881;DHT22;45751;51.380;10.326;2022-12-07T15:00:25;2.90;99.90
59881;DHT22;45751;51.380;10.326;2022-12-07T15:02:54;2.90;99.90
59881;DHT22;45751;51.380;10.326;2022-12-07T15:05:22;2.90;99.90
59881;DHT22;45751;51.380;10.326;2022-12-07T15:07:50;2.90;99.90
59881;DHT22;45751;51.380;10.326;2022-12-07T15:10:25;2.90;99.90
59881;DHT22;45751;51.380;10.326;2022-12-07T15:12:59;2.90;99.90
59881;DHT22;45751;51.380;10.326;2022-12-07T15:15:50;2.80;99.90
59881;DHT22;45751;51.380;10.326;2022-12-07T15:18:21;2.80;99.90
59881;DHT22;45751;51.380;10.326;2022-12-07T15:20:49;2.80;99.90
59881;DHT22;45751;51.380;10.326;2022-12-07T15:23:16;2.90;99.90
59881;DHT22;45751;51.380;10.326;2022-12-07T15:25:48;2.80;99.90
59881;DHT22;45751;51.380;10.326;2022-12-07T15:28:15;2.80;99.90
59881;DHT22;45751;51.380;10.326;2022-12-07T15:30:44;2.80;99.90
59881;DHT22;45751;51.380;10.326;2022-12-07T15:33:13;2.80;99.90
59881;DHT22;45751;51.380;10.326;2022-12-07T15:35:41;2.80;99.90
59881;DHT22;45751;51.380;10.326;2022-12-07T15:38:08;2.80;99.90
59881;DHT22;45751;51.380;10.326;2022-12-07T15:40:37;2.80;99.90
59881;DHT22;45751;51.380;10.326;2022-12-07T15:43:04;2.80;99.90
59881;DHT22;45751;51.380;10.326;2022-12-07T15:45:32;2.80;99.90
59881;DHT22;45751;51.380;10.326;2022-12-07T15:48:01;2.70;99.90
59881;DHT22;45751;51.380;10.326;2022-12-07T15:50:49;2.80;99.90
59881;DHT22;45751;51.380;10.326;2022-12-07T15:53:15;2.80;99.90
59881;DHT22;45751;51.380;10.326;2022-12-07T15:55:42;2.70;99.90
59881;DHT22;45751;51.380;10.326;2022-12-07T15:58:11;2.80;99.90
59881;DHT22;45751;51.380;10.326;2022-12-07T16:00:40;2.70;99.90
59881;DHT22;45751;51.380;10.326;2022-12-07T16:03:07;2.70;99.90
59881;DHT22;45751;51.380;10.326;2022-12-07T16:05:36;2.70;99.90
59881;DHT22;45751;51.380;10.326;2022-12-07T16:08:03;2.70;99.90
59881;DHT22;45751;51.380;10.326;2022-12-07T16:10:29;2.70;99.90
59881;DHT22;45751;51.380;10.326;2022-12-07T16:12:56;2.70;99.90
59881;DHT22;45751;51.380;10.326;2022-12-07T16:15:25;2.70;99.90
59881;DHT22;45751;51.380;10.326;2022-12-07T16:17:57;2.70;99.90
59881;DHT22;45751;51.380;10.326;2022-12-07T16:20:23;2.70;99.90
59881;DHT22;45751;51.380;10.326;2022-12-07T16:22:52;2.70;99.90
59881;DHT22;45751;51.380;10.326;2022-12-07T16:25:21;2.70;99.90
59881;DHT22;45751;51.380;10.326;2022-12-07T16:27:47;2.70;99.90
59881;DHT22;45751;51.380;10.326;2022-12-07T16:30:15;2.70;99.90
59881;DHT22;45751;51.380;10.326;2022-12-07T16:32:44;2.70;99.90
59881;DHT22;45751;51.380;10.326;2022-12-07T16:35:11;2.70;99.90
59881;DHT22;45751;51.380;10.326;2022-12-07T16:37:42;2.70;99.90
59881;DHT22;45751;51.380;10.326;2022-12-07T16:40:09;2.70;99.90
59881;DHT22;45751;51.380;10.326;2022-12-07T16:42:38;2.70;99.90
59881;DHT22;45751;51.380;10.326;2022-12-07T16:45:05;2.70;99.90
59881;DHT22;45751;51.380;10.326;2022-12-07T16:47:37;2.60;99.90
59881;DHT22;45751;51.380;10.326;2022-12-07T16:50:06;2.70;99.90
59881;DHT22;45751;51.380;10.326;2022-12-07T16:52:36;2.60;99.90
59881;DHT22;45751;51.380;10.326;2022-12-07T16:55:03;2.70;99.90
59881;DHT22;45751;51.380;10.326;2022-12-07T16:57:32;2.60;99.90
59881;DHT22;45751;51.380;10.326;2022-12-07T17:00:00;2.60;99.90
59881;DHT22;45751;51.380;10.326;2022-12-07T17:02:27;2.60;99.90
59881;DHT22;45751;51.380;10.326;2022-12-07T17:04:57;2.60;99.90
59881;DHT22;45751;51.380;10.326;2022-12-07T17:07:24;2.60;99.90
59881;DHT22;45751;51.380;10.326;2022-12-07T17:09:52;2.60;99.90
59881;DHT22;45751;51.380;10.326;2022-12-07T17:12:20;2.60;99.90
59881;DHT22;45751;51.380;10.326;2022-12-07T17:14:48;2.60;99.90
59881;DHT22;45751;51.380;10.326;2022-12-07T17:17:35;2.60;99.90
59881;DHT22;45751;51.380;10.326;2022-12-07T17:20:04;2.60;99.90
59881;DHT22;45751;51.380;10.326;2022-12-07T17:22:31;2.60;99.90
59881;DHT22;45751;51.380;10.326;2022-12-07T17:25:00;2.60;99.90
59881;DHT22;45751;51.380;10.326;2022-12-07T17:27:32;2.60;99.90
59881;DHT22;45751;51.380;10.326;2022-12-07T17:30:04;2.60;99.90
59881;DHT22;45751;51.380;10.326;2022-12-07T17:32:31;2.60;99.90
59881;DHT22;45751;51.380;10.326;2022-12-07T17:35:00;2.60;99.90
59881;DHT22;45751;51.380;10.326;2022-12-07T17:37:30;2.50;99.90
59881;DHT22;45751;51.380;10.326;2022-12-07T17:40:00;2.60;99.90
59881;DHT22;45751;51.380;10.326;2022-12-07T17:42:27;2.60;99.90
59881;DHT22;45751;51.380;10.326;2022-12-07T17:45:08;2.60;99.90
59881;DHT22;45751;51.380;10.326;2022-12-07T17:47:38;2.60;99.90
59881;DHT22;45751;51.380;10.326;2022-12-07T17:50:08;2.60;99.90
59881;DHT22;45751;51.380;10.326;2022-12-07T17:52:39;2.60;99.90
59881;DHT22;45751;51.380;10.326;2022-12-07T17:55:26;2.60;99.90
59881;DHT22;45751;51.380;10.326;2022-12-07T17:57:54;2.60;99.90
59881;DHT22;45751;51.380;10.326;2022-12-07T18:00:21;2.60;99.90